createdAt,value
2022-11-27T00:02:14.418Z,98292.63
2022-11-27T00:04:50.906Z,98294.38
2022-11-27T00:07:18.577Z,98293.47
2022-11-27T00:09:48.636Z,98297.63
2022-11-27T00:12:18.979Z,98300.22
2022-11-27T00:14:46.401Z,98308.59
2022-11-27T00:17:17.135Z,98305.00
2022-11-27T00:19:49.955Z,98297.97
2022-11-27T00:22:20.128Z,98299.34
2022-11-27T00:24:47.224Z,98303.66
2022-11-27T00:27:14.538Z,98304.53
2022-11-27T00:29:41.848Z,98301.94
2022-11-27T00:32:10.409Z,98311.19
2022-11-27T00:34:38.689Z,98305.84
2022-11-27T00:37:15.607Z,98306.69
2022-11-27T00:39:42.815Z,98297.94
2022-11-27T00:42:15.323Z,98308.13
2022-11-27T00:44:51.921Z,98300.25
2022-11-27T00:47:22.018Z,98318.09
2022-11-27T00:49:52.204Z,98319.72
2022-11-27T00:52:19.602Z,98318.03
2022-11-27T00:54:46.625Z,98308.78
2022-11-27T00:57:13.862Z,98307.69
2022-11-27T00:59:41.223Z,98319.44
2022-11-27T01:05:51.210Z,98322.94
2022-11-27T01:17:54.707Z,98308.91
2022-11-27T01:20:27.281Z,98310.75
2022-11-27T01:25:53.437Z,98314.00
2022-11-27T01:31:34.452Z,98311.00
2022-11-27T01:34:28.620Z,98308.41
2022-11-27T01:36:58.284Z,98302.44
2022-11-27T01:39:42.749Z,98304.94
2022-11-27T01:43:01.471Z,98303.34
2022-11-27T01:45:41.668Z,98312.97
2022-11-27T01:48:13.668Z,98312.75
2022-11-27T01:50:41.933Z,98305.81
2022-11-27T01:53:25.088Z,98301.50
2022-11-27T01:56:08.097Z,98296.53
2022-11-27T01:59:09.271Z,98292.16
2022-11-27T02:01:40.696Z,98298.25
2022-11-27T02:04:12.051Z,98294.09
2022-11-27T02:07:10.227Z,98282.00
2022-11-27T02:10:10.934Z,98284.22
2022-11-27T02:13:11.132Z,98288.03
2022-11-27T02:16:03.095Z,98289.97
2022-11-27T02:18:55.256Z,98289.06
2022-11-27T02:21:59.946Z,98287.41
2022-11-27T02:24:51.016Z,98282.13
2022-11-27T02:27:33.967Z,98283.28
2022-11-27T02:30:04.072Z,98285.22
2022-11-27T02:33:00.370Z,98296.59
2022-11-27T02:35:50.697Z,98297.59
2022-11-27T02:38:25.244Z,98289.81
2022-11-27T02:41:10.109Z,98296.66
2022-11-27T02:43:45.571Z,98294.91
2022-11-27T02:46:14.717Z,98306.88
2022-11-27T02:48:53.526Z,98306.13
2022-11-27T02:51:26.758Z,98314.00
2022-11-27T02:53:58.452Z,98308.78
2022-11-27T02:56:30.190Z,98308.69
2022-11-27T02:59:02.241Z,98306.75
2022-11-27T03:01:34.750Z,98311.88
2022-11-27T03:04:06.980Z,98311.03
2022-11-27T03:06:41.474Z,98318.63
2022-11-27T03:09:24.826Z,98311.63
2022-11-27T03:11:52.469Z,98297.00
2022-11-27T03:14:24.710Z,98307.25
2022-11-27T03:17:00.747Z,98305.34
2022-11-27T03:19:40.660Z,98311.34
2022-11-27T03:22:08.145Z,98313.84
2022-11-27T03:24:36.464Z,98310.34
2022-11-27T03:27:05.181Z,98306.84
2022-11-27T03:29:46.875Z,98313.50
2022-11-27T03:32:14.755Z,98313.44
2022-11-27T03:34:42.627Z,98319.50
2022-11-27T03:37:10.449Z,98311.78
2022-11-27T03:39:37.862Z,98304.00
2022-11-27T03:42:31.154Z,98315.19
2022-11-27T03:45:36.395Z,98310.72
2022-11-27T03:48:15.557Z,98306.44
2022-11-27T03:50:59.817Z,98314.81
2022-11-27T03:53:35.536Z,98315.00
2022-11-27T03:56:28.029Z,98303.84
2022-11-27T03:59:09.510Z,98303.16
2022-11-27T04:01:37.447Z,98284.34
2022-11-27T04:04:04.544Z,98296.22
2022-11-27T04:06:31.969Z,98301.41
2022-11-27T04:09:00.843Z,98300.56
2022-11-27T04:11:28.140Z,98302.47
2022-11-27T04:13:55.256Z,98296.38
2022-11-27T04:16:22.824Z,98301.59
2022-11-27T04:18:50.008Z,98296.59
2022-11-27T04:21:17.388Z,98303.41
2022-11-27T04:23:48.171Z,98297.53
2022-11-27T04:26:15.435Z,98300.97
2022-11-27T04:28:42.899Z,98301.97
2022-11-27T04:31:09.969Z,98302.94
2022-11-27T04:33:37.315Z,98302.16
2022-11-27T04:36:04.670Z,98295.31
2022-11-27T04:38:31.929Z,98299.50
2022-11-27T04:40:59.517Z,98301.31
2022-11-27T04:43:26.986Z,98298.78
2022-11-27T04:45:54.215Z,98305.16
2022-11-27T04:48:21.303Z,98305.44
2022-11-27T04:50:48.462Z,98308.88
2022-11-27T04:53:15.568Z,98307.28
2022-11-27T04:55:43.135Z,98309.81
2022-11-27T04:58:12.238Z,98303.03
2022-11-27T05:00:39.320Z,98303.88
2022-11-27T05:03:06.726Z,98304.75
2022-11-27T05:05:33.960Z,98298.59
2022-11-27T05:08:00.994Z,98303.75
2022-11-27T05:10:28.166Z,98309.03
2022-11-27T05:12:55.467Z,98307.28
2022-11-27T05:15:22.745Z,98314.28
2022-11-27T05:17:49.864Z,98315.19
2022-11-27T05:20:17.135Z,98320.38
2022-11-27T05:22:45.346Z,98310.94
2022-11-27T05:25:12.465Z,98322.75
2022-11-27T05:27:40.035Z,98320.06
2022-11-27T05:30:08.171Z,98322.47
2022-11-27T05:32:35.297Z,98323.31
2022-11-27T05:35:02.673Z,98321.47
2022-11-27T05:37:32.970Z,98316.97
2022-11-27T05:40:00.042Z,98322.88
2022-11-27T05:42:29.255Z,98317.63
2022-11-27T05:44:58.427Z,98309.78
2022-11-27T05:47:26.041Z,98327.16
2022-11-27T05:49:53.433Z,98324.56
2022-11-27T05:52:20.545Z,98332.25
2022-11-27T05:54:47.714Z,98320.03
2022-11-27T05:57:24.060Z,98326.72
2022-11-27T05:59:54.193Z,98333.41
2022-11-27T06:02:26.425Z,98331.41
2022-11-27T06:04:56.254Z,98330.63
2022-11-27T06:07:23.346Z,98335.72
2022-11-27T06:09:50.898Z,98341.72
2022-11-27T06:12:20.943Z,98348.50
2022-11-27T06:14:48.063Z,98351.56
2022-11-27T06:17:18.273Z,98346.16
2022-11-27T06:19:45.667Z,98346.97
2022-11-27T06:37:39.147Z,98332.16
2022-11-27T06:40:07.416Z,98338.09
2022-11-27T06:42:34.548Z,98345.59
2022-11-27T06:45:01.591Z,98342.00
2022-11-27T06:47:28.651Z,98346.13
2022-11-27T06:49:55.681Z,98346.72
2022-11-27T06:52:22.684Z,98340.28
2022-11-27T06:54:49.947Z,98343.59
2022-11-27T06:57:16.957Z,98346.81
2022-11-27T06:59:44.094Z,98348.38
2022-11-27T07:02:15.452Z,98353.25
2022-11-27T07:04:42.698Z,98360.84
2022-11-27T07:07:10.035Z,98355.44
2022-11-27T07:09:37.276Z,98358.81
2022-11-27T07:12:08.464Z,98356.09
2022-11-27T07:14:35.439Z,98348.88
2022-11-27T07:17:02.573Z,98351.34
2022-11-27T07:19:29.660Z,98340.06
2022-11-27T07:21:56.837Z,98337.22
2022-11-27T07:24:23.926Z,98341.16
2022-11-27T07:26:51.216Z,98345.19
2022-11-27T07:29:18.221Z,98336.38
2022-11-27T07:31:45.824Z,98339.66
2022-11-27T07:34:17.145Z,98336.88
2022-11-27T07:36:47.169Z,98335.00
2022-11-27T07:39:14.508Z,98332.28
2022-11-27T07:41:41.596Z,98340.59
2022-11-27T07:44:11.718Z,98328.25
2022-11-27T07:46:38.818Z,98345.16
2022-11-27T07:49:06.048Z,98349.84
2022-11-27T07:51:33.226Z,98338.56
2022-11-27T07:54:00.623Z,98338.28
2022-11-27T07:56:28.214Z,98338.94
2022-11-27T07:58:57.368Z,98360.03
2022-11-27T08:01:28.232Z,98341.41
2022-11-27T08:03:55.487Z,98351.41
2022-11-27T08:06:24.822Z,98346.09
2022-11-27T08:08:52.530Z,98347.56
2022-11-27T08:11:25.464Z,98338.50
2022-11-27T08:13:57.515Z,98341.75
2022-11-27T08:16:25.282Z,98332.91
2022-11-27T08:18:53.052Z,98339.50
2022-11-27T08:21:20.601Z,98345.72
2022-11-27T08:23:48.397Z,98339.97
2022-11-27T08:26:15.862Z,98337.97
2022-11-27T08:28:43.715Z,98337.13
2022-11-27T08:31:13.710Z,98342.59
2022-11-27T08:33:41.233Z,98350.69
2022-11-27T08:36:12.568Z,98336.47
2022-11-27T08:38:42.417Z,98336.56
2022-11-27T08:41:10.017Z,98334.28
2022-11-27T08:43:37.182Z,98338.13
2022-11-27T08:46:06.766Z,98331.78
2022-11-27T08:48:36.246Z,98323.19
2022-11-27T08:51:12.721Z,98333.53
2022-11-27T08:53:40.434Z,98327.03
2022-11-27T08:56:16.966Z,98318.13
2022-11-27T08:58:45.400Z,98307.28
2022-11-27T09:01:16.965Z,98306.81
2022-11-27T09:03:44.178Z,98302.91
2022-11-27T09:06:13.680Z,98300.47
2022-11-27T09:08:42.476Z,98299.91
2022-11-27T09:11:10.374Z,98294.53
2022-11-27T09:13:38.397Z,98288.88
2022-11-27T09:16:06.420Z,98284.09
2022-11-27T09:18:34.608Z,98276.44
2022-11-27T09:21:04.838Z,98266.59
2022-11-27T09:23:32.429Z,98262.19
2022-11-27T09:26:04.255Z,98264.41
2022-11-27T09:28:35.607Z,98260.28
2022-11-27T09:31:04.687Z,98257.41
2022-11-27T09:33:33.759Z,98253.09
2022-11-27T09:36:07.055Z,98255.59
2022-11-27T09:38:34.640Z,98260.59
2022-11-27T09:41:11.623Z,98256.41
2022-11-27T09:43:53.941Z,98255.69
2022-11-27T09:46:33.837Z,98255.47
2022-11-27T09:49:05.443Z,98254.75
2022-11-27T09:51:43.649Z,98244.31
2022-11-27T09:54:23.976Z,98238.50
2022-11-27T09:56:53.695Z,98237.03
2022-11-27T09:59:24.240Z,98247.88
2022-11-27T10:01:52.292Z,98241.13
2022-11-27T10:04:21.268Z,98233.53
2022-11-27T10:07:13.742Z,98230.63
2022-11-27T10:10:03.500Z,98232.94
2022-11-27T10:13:00.427Z,98224.25
2022-11-27T10:15:45.993Z,98221.63
2022-11-27T10:18:57.922Z,98224.41
2022-11-27T10:21:44.304Z,98205.53
2022-11-27T10:24:46.498Z,98205.72
2022-11-27T10:27:44.241Z,98213.88
2022-11-27T10:30:18.202Z,98208.41
2022-11-27T10:32:55.242Z,98199.88
2022-11-27T10:35:26.433Z,98197.56
2022-11-27T10:37:59.877Z,98196.53
2022-11-27T10:40:55.029Z,98196.22
2022-11-27T10:43:25.652Z,98190.88
2022-11-27T10:46:18.761Z,98185.06
2022-11-27T10:48:45.922Z,98191.69
2022-11-27T10:51:21.398Z,98187.78
2022-11-27T10:53:53.542Z,98183.13
2022-11-27T10:56:42.308Z,98195.28
2022-11-27T10:59:23.275Z,98178.47
2022-11-27T11:01:55.273Z,98175.13
2022-11-27T11:04:43.269Z,98179.47
2022-11-27T11:07:30.672Z,98180.72
2022-11-27T11:09:57.898Z,98174.56
2022-11-27T11:12:25.243Z,98177.94
2022-11-27T11:15:01.199Z,98172.22
2022-11-27T11:17:35.079Z,98159.81
2022-11-27T11:20:20.670Z,98165.63
2022-11-27T11:22:49.074Z,98165.47
2022-11-27T11:25:21.014Z,98165.47
2022-11-27T11:27:50.735Z,98156.41
2022-11-27T11:30:28.890Z,98151.56
2022-11-27T11:33:04.336Z,98157.44
2022-11-27T11:35:35.121Z,98147.63
2022-11-27T11:38:05.215Z,98136.56
2022-11-27T11:40:35.567Z,98133.56
2022-11-27T11:43:06.966Z,98138.03
2022-11-27T11:45:35.482Z,98129.84
2022-11-27T11:48:26.827Z,98138.72
2022-11-27T11:51:18.801Z,98143.69
2022-11-27T11:54:08.320Z,98136.66
2022-11-27T11:56:46.187Z,98148.97
2022-11-27T11:59:22.654Z,98144.75
2022-11-27T12:02:11.003Z,98138.97
2022-11-27T12:05:04.266Z,98142.44
2022-11-27T12:07:52.181Z,98136.75
2022-11-27T12:10:45.993Z,98136.38
2022-11-27T12:13:40.749Z,98130.94
2022-11-27T12:16:48.738Z,98133.75
2022-11-27T12:19:45.510Z,98134.88
2022-11-27T12:22:40.525Z,98139.69
2022-11-27T12:25:28.514Z,98134.56
2022-11-27T12:28:33.394Z,98136.16
2022-11-27T12:31:11.745Z,98124.09
2022-11-27T12:33:49.152Z,98124.00
2022-11-27T12:36:43.354Z,98124.63
2022-11-27T12:40:47.676Z,98131.09
2022-11-27T12:43:25.854Z,98121.97
2022-11-27T12:46:04.890Z,98129.34
2022-11-27T12:48:45.538Z,98121.78
2022-11-27T12:51:29.777Z,98124.66
2022-11-27T12:54:18.786Z,98124.84
2022-11-27T12:56:58.245Z,98127.25
2022-11-27T12:59:48.164Z,98129.16
2022-11-27T13:02:28.921Z,98123.63
2022-11-27T13:05:16.761Z,98126.25
2022-11-27T13:07:52.771Z,98126.53
2022-11-27T13:10:38.563Z,98121.28
2022-11-27T13:13:25.832Z,98124.66
2022-11-27T13:16:01.539Z,98128.56
2022-11-27T13:18:41.993Z,98140.75
2022-11-27T13:21:17.855Z,98131.47
2022-11-27T13:23:45.164Z,98139.97
2022-11-27T13:26:21.979Z,98133.59
2022-11-27T13:28:57.925Z,98132.31
2022-11-27T13:31:31.731Z,98135.81
2022-11-27T13:34:07.424Z,98133.22
2022-11-27T13:36:40.225Z,98132.53
2022-11-27T13:39:21.673Z,98133.31
2022-11-27T13:41:49.545Z,98130.78
2022-11-27T13:44:27.377Z,98128.78
2022-11-27T13:46:56.380Z,98137.88
2022-11-27T13:49:38.346Z,98134.00
2022-11-27T13:52:18.311Z,98138.56
2022-11-27T13:55:20.187Z,98129.34
2022-11-27T13:57:53.729Z,98138.13
2022-11-27T14:00:42.631Z,98137.28
2022-11-27T14:03:23.854Z,98133.13
2022-11-27T14:05:51.032Z,98130.34
2022-11-27T14:08:22.157Z,98133.91
2022-11-27T14:11:00.671Z,98133.72
2022-11-27T14:13:50.544Z,98135.56
2022-11-27T14:16:32.865Z,98136.63
2022-11-27T14:19:08.768Z,98137.81
2022-11-27T14:21:44.409Z,98130.91
2022-11-27T14:24:35.030Z,98131.56
2022-11-27T14:27:16.107Z,98128.00
2022-11-27T14:29:43.479Z,98131.38
2022-11-27T14:32:14.292Z,98127.50
2022-11-27T14:34:42.414Z,98128.44
2022-11-27T14:37:39.406Z,98127.84
2022-11-27T14:40:20.761Z,98120.94
2022-11-27T14:42:48.313Z,98121.09
2022-11-27T14:45:18.352Z,98127.19
2022-11-27T14:47:55.967Z,98139.53
2022-11-27T14:50:23.818Z,98134.31
2022-11-27T14:52:56.919Z,98132.44
2022-11-27T14:58:18.811Z,98134.09
2022-11-27T15:00:58.555Z,98138.19
2022-11-27T15:03:27.235Z,98126.63
2022-11-27T15:06:03.265Z,98127.91
2022-11-27T15:08:35.656Z,98119.97
2022-11-27T15:11:05.309Z,98125.63
2022-11-27T15:13:42.386Z,98127.41
2022-11-27T15:16:23.474Z,98126.41
2022-11-27T15:18:58.626Z,98124.69
2022-11-27T15:21:26.826Z,98137.94
2022-11-27T15:24:42.744Z,98126.31
2022-11-27T15:27:16.108Z,98136.16
2022-11-27T15:30:17.857Z,98137.88
2022-11-27T15:33:08.149Z,98129.59
2022-11-27T15:35:54.021Z,98131.13
2022-11-27T15:38:22.511Z,98132.97
2022-11-27T15:41:11.296Z,98138.03
2022-11-27T15:43:38.844Z,98138.53
2022-11-27T15:46:12.491Z,98146.28
2022-11-27T15:55:27.525Z,98136.69
2022-11-27T16:01:26.145Z,98128.56
2022-11-27T16:04:08.431Z,98137.16
2022-11-27T16:07:01.447Z,98139.00
2022-11-27T16:10:34.802Z,98133.13
2022-11-27T16:13:38.184Z,98132.25
2022-11-27T16:19:35.605Z,98122.84
2022-11-27T16:25:43.755Z,98127.25
2022-11-27T16:29:15.487Z,98116.28
2022-11-27T16:31:55.823Z,98117.38
2022-11-27T16:47:38.174Z,98130.88
2022-11-27T16:50:19.978Z,98124.00
2022-11-27T16:53:14.139Z,98128.53
2022-11-27T16:56:16.833Z,98130.72
2022-11-27T17:00:03.387Z,98123.84
2022-11-27T17:09:19.878Z,98128.69
2022-11-27T17:12:55.303Z,98136.41
2022-11-27T17:15:28.844Z,98120.78
2022-11-27T17:17:58.786Z,98125.97
2022-11-27T17:20:26.948Z,98125.50
2022-11-27T17:22:54.448Z,98119.66
2022-11-27T17:25:21.675Z,98124.97
2022-11-27T17:27:49.465Z,98123.44
2022-11-27T17:30:16.815Z,98120.69
2022-11-27T17:32:44.036Z,98108.53
2022-11-27T17:35:11.123Z,98109.31
2022-11-27T17:37:38.288Z,98106.56
2022-11-27T17:40:06.173Z,98107.97
2022-11-27T17:42:33.240Z,98103.59
2022-11-27T17:45:00.594Z,98103.59
2022-11-27T17:47:28.185Z,98101.41
2022-11-27T17:49:55.301Z,98095.66
2022-11-27T17:52:22.590Z,98097.38
2022-11-27T17:54:49.740Z,98099.03
2022-11-27T17:57:16.804Z,98097.97
2022-11-27T17:59:44.287Z,98097.38
2022-11-27T18:02:12.632Z,98092.56
2022-11-27T18:04:39.934Z,98089.94
2022-11-27T18:07:07.080Z,98085.56
2022-11-27T18:09:34.509Z,98091.63
2022-11-27T18:12:01.574Z,98083.88
2022-11-27T18:14:29.711Z,98092.63
2022-11-27T18:16:56.731Z,98092.78
2022-11-27T18:19:25.108Z,98093.94
2022-11-27T18:21:52.554Z,98100.16
2022-11-27T18:24:24.431Z,98098.13
2022-11-27T18:29:43.081Z,98103.53
2022-11-27T18:36:06.043Z,98104.53
2022-11-27T18:49:28.450Z,98094.50
2022-11-27T18:55:37.677Z,98096.31
2022-11-27T19:06:28.221Z,98101.53
2022-11-27T19:08:56.821Z,98086.44
2022-11-27T19:11:40.087Z,98106.31
2022-11-27T19:14:09.404Z,98100.09
2022-11-27T19:16:50.962Z,98098.56
2022-11-27T19:22:34.283Z,98098.03
2022-11-27T19:25:20.043Z,98101.72
2022-11-27T19:28:23.148Z,98096.03
2022-11-27T19:31:04.175Z,98094.34
2022-11-27T19:33:48.948Z,98095.19
2022-11-27T19:36:26.318Z,98095.19
2022-11-27T19:39:38.225Z,98095.88
2022-11-27T19:42:09.781Z,98084.69
2022-11-27T19:45:37.228Z,98087.13
2022-11-27T19:48:05.840Z,98090.66
2022-11-27T19:54:34.763Z,98090.66
2022-11-27T20:09:31.723Z,98090.63
2022-11-27T20:19:22.890Z,98095.97
2022-11-27T20:22:04.086Z,98089.78
2022-11-27T20:25:04.111Z,98093.28
2022-11-27T20:27:47.303Z,98079.66
2022-11-27T20:30:38.976Z,98085.63
2022-11-27T20:34:20.702Z,98096.03
2022-11-27T20:44:39.166Z,98086.38
2022-11-27T20:51:02.023Z,98075.03
2022-11-27T20:53:35.725Z,98066.47
2022-11-27T20:59:32.259Z,98071.25
2022-11-27T21:02:45.745Z,98070.38
2022-11-27T21:17:16.438Z,98055.63
2022-11-27T21:23:06.321Z,98051.16
2022-11-27T21:26:54.219Z,98052.84
2022-11-27T21:42:27.616Z,98041.75
2022-11-27T22:04:10.701Z,98049.16
2022-11-27T22:07:13.474Z,98047.81
2022-11-27T22:18:10.268Z,98041.06
2022-11-27T22:22:53.617Z,98039.69
2022-11-27T22:25:42.063Z,98030.81
2022-11-27T22:28:47.000Z,98034.47
2022-11-27T22:31:20.224Z,98023.91
2022-11-27T22:34:14.822Z,98018.72
2022-11-27T22:37:20.406Z,98020.53
2022-11-27T22:39:54.299Z,98022.22
2022-11-27T22:42:33.490Z,98018.53
2022-11-27T22:45:12.885Z,98026.44
2022-11-27T22:47:44.681Z,98016.16
2022-11-27T22:50:12.960Z,98022.22
2022-11-27T22:52:58.127Z,98022.91
2022-11-27T22:55:35.018Z,98014.25
2022-11-27T23:01:27.284Z,98014.34
2022-11-27T23:04:03.703Z,98006.59
2022-11-27T23:06:51.139Z,98009.28
2022-11-27T23:12:41.144Z,98013.66
2022-11-27T23:18:56.982Z,98011.81
2022-11-27T23:28:16.072Z,98007.38
2022-11-27T23:33:58.082Z,97991.66
2022-11-27T23:47:29.245Z,97996.63
2022-11-27T23:53:14.442Z,97988.66
2022-11-27T23:55:53.511Z,97990.03
2022-11-27T23:58:37.210Z,97988.53
